Nearby METAR Reports

 

KSJC - San Jose, California, USA
Distance from station: NE 14km
Updated: 19/10/2019 09:53
Clear
Clear
 Wind from SSE
Wind: SSE 6 km/h
Temperature: 11°C
Dew Point: 7°C
Humidity: 77%
Barometer: 1019 hPa
Clouds: Clear
Visibility: 16 km
2019/10/19 08:53 KSJC 190853Z AUTO 16003KT 10SM CLR 11/07 A3009 RMK AO2 SLP188 T01060072 58004
KNUQ - Moffett Nas/Mtn, California, USA
Distance from station: N 14km
Updated: 19/10/2019 09:56

 
Barometer: 1019 hPa
2019/10/19 08:56 KNUQ 190856Z A3009 RMK AO2 SLP193 58003 PWINO $
 
KPAO - Palo Alto, California, USA
Distance from station: NNW 23km
Updated: 19/10/2019 04:47
NOT Current
Clear
Clear
 Wind from WSW
Wind: WSW 7 km/h
Temperature: 13°C
Dew Point: 8°C
Humidity: 72%
Barometer: 1018.6 hPa
Clouds: Clear
Visibility: 16 km
2019/10/19 03:47 KPAO 190347Z 24004KT 10SM SKC 13/08 A3008 RMK LAST
KRHV - San Jose/Reid, California, USA
Distance from station: ENE 19km
Updated: 19/10/2019 04:47
NOT Current
Clear
Clear
 Wind from N
Wind: N 6 km/h
Temperature: 12°C
Dew Point: 7°C
Humidity: 72%
Barometer: 1019 hPa
Clouds: Clear
Visibility: 16 km
2019/10/19 03:47 KRHV 190347Z 36003KT 10SM SKC 12/07 A3009
 
KOAK - Oakland, California, USA
Distance from station: NNW 50km
Updated: 19/10/2019 09:53
Clear
Clear
 Wind from calm
Wind: Calm
Temperature: 11°C
Dew Point: 9°C
Humidity: 88%
Barometer: 1019 hPa
Clouds: Clear
Visibility: 14 km
2019/10/19 08:53 KOAK 190853Z 00000KT 9SM CLR 11/09 A3009 RMK AO2 SLP189 T01110094 55000
KSQL - San Carlos Airpo, California, USA
Distance from station: NW 34km
Updated: 19/10/2019 04:47
NOT Current
Clear
Clear
 Wind from SW
Wind: SW 11 km/h
Temperature: 14°C
Dew Point: 8°C
Humidity: 67%
Barometer: 1019 hPa
Clouds: Clear
Visibility: 16 km
2019/10/19 03:47 KSQL 190347Z 23006KT 10SM SKC 14/08 A3009 RMK LAST
 
KSFO - San Francisco, California, USA
Distance from station: NW 49km
Updated: 19/10/2019 09:56
Few Clouds
Few Clouds
 Wind from W
Wind: W 13 km/h
Temperature: 13°C
Dew Point: 9°C
Humidity: 77%
Barometer: 1018.6 hPa
Clouds: Few Clouds
Visibility: 16 km
Cloud details: Few Clouds 183 m
2019/10/19 08:56 KSFO 190856Z 27007KT 10SM FEW006 13/09 A3008 RMK AO2 SLP185 T01280089 51003
KE16 - San Martin, California, USA
Distance from station: ESE 43km
Updated: 19/10/2019 10:35
Partly cloudy
Partly cloudy
 Wind from calm
Wind: Calm
Temperature: 8°C
Dew Point: 5°C
Humidity: 82%
Barometer: 1019.6 hPa
Clouds: Partly cloudy
Visibility: 16 km
Cloud details: Partly cloudy 549 m
2019/10/19 09:35 KE16 190935Z AUTO 00000KT 10SM SCT018 08/05 A3011 RMK AO2
 
KWVI - Watsonville, California, USA
Distance from station: SSE 44km
Updated: 19/10/2019 09:53
Clear
Clear
 Wind from NNW
Wind: NNW 9 km/h
Temperature: 9°C
Wind Chill: 7°C
Dew Point: 7°C
Humidity: 87%
Barometer: 1019.3 hPa
Clouds: Clear
Visibility: 16 km
2019/10/19 08:53 KWVI 190853Z AUTO 33005KT 10SM CLR 09/07 A3010 RMK AO2 SLP192 T00940072 58001
KHAF - Half Moon Bay, California, USA
Distance from station: WNW 50km
Updated: 19/10/2019 10:35
Mist, Few clouds
Mist, Few clouds
 Wind from calm
Wind: Calm
Temperature: 6°C
Dew Point: 5°C
Humidity: 93%
Barometer: 1019.3 hPa
Summary: Mist
Clouds: Few Clouds
Visibility: 8 km
Cloud details: Few Clouds 91 m
2019/10/19 09:35 KHAF 190935Z AUTO 00000KT 5SM BR FEW003 06/05 A3010 RMK AO2
 
KHWD - Hayward, California, USA
Distance from station: N 44km
Updated: 19/10/2019 09:54
Clear
Clear
 Wind from SSE
Wind: SSE 9 km/h
Temperature: 12°C
Dew Point: 9°C
Humidity: 82%
Barometer: 1018.6 hPa
Clouds: Clear
Visibility: 16 km
2019/10/19 08:54 KHWD 190854Z AUTO 15005KT 10SM CLR 12/09 A3008 RMK AO2 SLP196 T01170089 57002
KLVK - Livermore, California, USA
Distance from station: NNE 51km
Updated: 19/10/2019 09:53
Clear
Clear
 Wind from calm
Wind: Calm
Temperature: 9°C
Dew Point: 7°C
Humidity: 87%
Barometer: 1018.3 hPa
Clouds: Clear
Visibility: 16 km
2019/10/19 08:53 KLVK 190853Z AUTO 00000KT 10SM CLR 09/07 A3007 RMK AO2 SLP180 T00940067 57004